Flight UPS2000

  • Submitted By: Preston Bradley
  • Departure Airport: Singapore Changi Airport (WSSS)
  • Arrival Airport: Taiwan Taoyuan International Airport (RCTP)
  • Aircraft: MD-11F (N256UP)
  • Flight Time: 04.14
  • Date Submitted: 02/15/2015
  • Status: Accepted
Flight Details
Gross Revenue:
(166126 load / $ 9.98 per unit
$ 1, 657, 937.48
Fuel Cost:
(30125 fuel used @ 5.1 / unit)
$ 153, 637.50

Additional Log Information:

View Log

Aircraft Used in flight is PMDG MD-11F UPS N253UP
00:02 Brakes are On
00:11 Brakes are Released
00:13 Brakes are On
00:17 Brakes are Released
00:23 You Took off @ 185 Knots and Flaps at Position 3
Departure Weather
WSSS 150500Z 03006KT 300V080 9999 FEW020 BKN300 31/22 Q1011 NOSIGrn
00:23 Landing Gear Up @ 196 Knots and 190 Feet
00:25 Below 10000 feet you are not allowed to go over 250 knots
00:25 Below Fl100 you need to turn on the landing lights
00:25 Below FL100 you need to turn on the landing lights
04:01 Landing Gear Down @ 191 Knots and 3800 Feet
04:03 Landing Gear Up @ 161 Knots and 2830 Feet
04:03 Landing Gear Down @ 161 Knots and 2810 Feet
04:06 You Landed @ 149 Knots and with -250 Vertical Speed
Arrival Weather
RCTP 150830Z 35007KT 5000 -RA FEW015 SCT035 BKN050 17/14 Q1016 NOSIG RMK A3002rn
04:11 Brakes are On
04:17 UpsTracker1.0.0.3

Route Map